Aérodrome de Castelnaudary-Villeneuve

METAR LFMK TAF LFMK
9 °C
°C
-
°C
31m
Wiek
21:30:32
LT
20:30
UTC
0 ft

1.000

2.000

3.000

4.000

5.000

FEW 1.900
SCT 4.200
OVC 5.000
VFR
<?= Yii::t('app', 'Wind direction') ?> <?= Yii::t('app', 'of'); ?>
270°
08:01
Wschód słońca
76%
Wilgotność
Siła wiatru
Zamknięte/Śnieg
Zasięg wzroku na RWY
Stan RWY
Widzialność pionowa
Min. widoczność
CAVOK
Trend
Korekta
Raport specjalny
1034 hPa
QNH
METAR LFMK 052000Z AUTO 27013KT 240V300 9999 FEW019 SCT042 OVC050 09/05 Q1034
Pochmurny
4 kt
4 kt
21:00
VFR
12 kt
22:00
VFR
12 kt
23:00
VFR
12 kt
00:00
VFR
12 kt
01:00
VFR
12 kt
02:00
VFR
12 kt
03:00
VFR
12 kt
10 km+
Widoczność
5.000 ft
Sufit
13 kt
Wiatr
metar-taf.com/LFMW

Metar-Taf.com

Dekoder wizualny

My i strony trzecie śledzimy Twoje zachowanie internetowe na naszej stronie za pomocą plików cookie. Jeśli kontynuujesz, zakładamy, że zgadzasz się z naszymi polityka plików cookie.